Time;durP1;ratioP1;P1;durP2;ratioP2;P2;SDS_P1;SDS_P2;PMS_P1;PMS_P2;Temp;Humidity;BMP_temperature;BMP_pressure;BME280_temperature;BME280_humidity;BME280_pressure;Samples;Min_cycle;Max_cycle;Signal;HPM_P1;HPM_P2
2023/07/25 00:01:34;;;;;;;17.80;8.25;;;;;;;;;;4950925;28;20058;-56
2023/07/25 00:04:00;;;;;;;19.52;8.30;;;;;;;;;;4950451;29;20118;-53
2023/07/25 00:06:26;;;;;;;17.00;8.18;;;;;;;;;;4949662;29;20031;-53
2023/07/25 00:08:52;;;;;;;17.83;8.20;;;;;;;;;;4950908;28;20101;-54
2023/07/25 00:11:18;;;;;;;16.17;8.52;;;;;;;;;;4950963;28;20182;-54
2023/07/25 00:13:44;;;;;;;18.23;7.80;;;;;;;;;;4950813;28;20032;-53
2023/07/25 00:16:10;;;;;;;16.80;8.07;;;;;;;;;;4950201;28;20069;-52
2023/07/25 00:18:36;;;;;;;19.40;8.68;;;;;;;;;;4950804;28;20051;-51
2023/07/25 00:21:02;;;;;;;17.63;8.05;;;;;;;;;;4951936;28;20372;-54
2023/07/25 00:23:28;;;;;;;20.30;8.73;;;;;;;;;;4950768;28;20394;-50
2023/07/25 00:25:53;;;;;;;17.70;8.20;;;;;;;;;;4950002;28;20027;-49
2023/07/25 00:28:22;;;;;;;17.58;8.20;;;;;;;;;;4950810;29;20054;-54
2023/07/25 00:30:48;;;;;;;16.65;7.93;;;;;;;;;;4950754;28;20034;-50
2023/07/25 00:33:14;;;;;;;17.23;8.07;;;;;;;;;;4950162;28;20387;-50
2023/07/25 00:35:40;;;;;;;17.55;7.90;;;;;;;;;;4949922;28;20110;-50
2023/07/25 00:38:06;;;;;;;20.67;8.05;;;;;;;;;;4950583;28;20133;-51
2023/07/25 00:40:32;;;;;;;17.55;7.95;;;;;;;;;;4949341;28;20066;-53
2023/07/25 00:42:58;;;;;;;17.42;7.45;;;;;;;;;;4944193;28;20420;-52
2023/07/25 00:45:24;;;;;;;17.38;8.02;;;;;;;;;;4949876;28;20031;-52
2023/07/25 00:47:50;;;;;;;18.95;7.85;;;;;;;;;;4950307;28;20068;-49
2023/07/25 00:50:16;;;;;;;16.30;8.13;;;;;;;;;;4950206;28;20035;-52
2023/07/25 00:52:42;;;;;;;16.77;8.05;;;;;;;;;;4950496;29;20032;-49
2023/07/25 00:55:09;;;;;;;19.35;8.63;;;;;;;;;;4949715;29;20094;-50
2023/07/25 00:57:35;;;;;;;16.70;8.20;;;;;;;;;;4950362;28;20077;-52
2023/07/25 01:00:00;;;;;;;18.45;8.38;;;;;;;;;;4950449;28;20028;-51
2023/07/25 01:02:26;;;;;;;19.10;8.40;;;;;;;;;;4950449;28;20046;-50
2023/07/25 01:04:53;;;;;;;19.55;8.25;;;;;;;;;;4949688;28;20030;-52
2023/07/25 01:07:19;;;;;;;18.10;8.45;;;;;;;;;;4950350;28;20028;-54
2023/07/25 01:09:46;;;;;;;18.00;8.27;;;;;;;;;;4949191;28;20394;-53
2023/07/25 01:12:13;;;;;;;18.00;8.48;;;;;;;;;;4950159;28;20031;-51
2023/07/25 01:14:39;;;;;;;21.77;9.15;;;;;;;;;;4949495;28;20055;-55
2023/07/25 01:17:10;;;;;;;17.77;8.25;;;;;;;;;;4950471;28;20031;-52
2023/07/25 01:19:38;;;;;;;19.80;9.02;;;;;;;;;;4950443;28;20035;-52
2023/07/25 01:22:04;;;;;;;19.33;9.60;;;;;;;;;;4949919;28;20032;-52
2023/07/25 01:24:30;;;;;;;17.77;9.15;;;;;;;;;;4949546;28;20027;-51
2023/07/25 01:26:56;;;;;;;16.13;8.40;;;;;;;;;;4950084;29;20789;-51
2023/07/25 01:29:22;;;;;;;18.10;8.77;;;;;;;;;;4949925;28;20040;-56
2023/07/25 01:31:48;;;;;;;17.50;9.05;;;;;;;;;;4949716;28;20092;-48
2023/07/25 01:34:14;;;;;;;17.65;8.65;;;;;;;;;;4949329;28;20024;-51
2023/07/25 01:36:40;;;;;;;16.77;8.60;;;;;;;;;;4950040;28;20104;-49
2023/07/25 01:39:07;;;;;;;18.63;8.68;;;;;;;;;;4949850;28;20031;-54
2023/07/25 01:41:33;;;;;;;19.75;9.13;;;;;;;;;;4949963;28;20414;-47
2023/07/25 01:43:59;;;;;;;17.42;9.05;;;;;;;;;;4948274;28;20480;-50
2023/07/25 01:46:25;;;;;;;16.02;8.52;;;;;;;;;;4952522;28;20039;-54
2023/07/25 01:48:51;;;;;;;31.35;9.95;;;;;;;;;;4952921;28;20054;-50
2023/07/25 01:51:17;;;;;;;18.55;9.13;;;;;;;;;;4952855;28;20030;-52
2023/07/25 01:53:43;;;;;;;19.65;9.27;;;;;;;;;;4952727;28;20106;-54
2023/07/25 01:56:09;;;;;;;20.83;9.77;;;;;;;;;;4950781;28;20035;-53
2023/07/25 01:58:35;;;;;;;16.88;8.93;;;;;;;;;;4953006;28;20462;-49
2023/07/25 02:01:01;;;;;;;17.70;8.82;;;;;;;;;;4952943;28;20042;-52
2023/07/25 02:03:27;;;;;;;19.42;8.80;;;;;;;;;;4951769;28;20028;-52
2023/07/25 02:05:53;;;;;;;17.42;8.75;;;;;;;;;;4952183;28;20035;-54
2023/07/25 02:08:19;;;;;;;17.95;8.82;;;;;;;;;;4952863;28;20046;-53
2023/07/25 02:10:45;;;;;;;21.00;9.60;;;;;;;;;;4952774;28;20395;-52
2023/07/25 02:13:11;;;;;;;23.98;9.75;;;;;;;;;;4952964;28;20019;-55
2023/07/25 02:15:37;;;;;;;19.15;9.30;;;;;;;;;;4952157;28;20036;-57
2023/07/25 02:18:04;;;;;;;19.95;9.45;;;;;;;;;;4952492;29;20031;-52
2023/07/25 02:20:31;;;;;;;18.42;9.30;;;;;;;;;;4952616;28;20061;-50
2023/07/25 02:22:57;;;;;;;19.30;9.88;;;;;;;;;;4952585;28;20518;-50
2023/07/25 02:25:23;;;;;;;20.40;10.45;;;;;;;;;;4951890;28;20043;-50
2023/07/25 02:27:49;;;;;;;18.50;9.50;;;;;;;;;;4952586;29;20105;-52
2023/07/25 02:30:15;;;;;;;20.42;9.85;;;;;;;;;;4952694;28;20081;-49
2023/07/25 02:32:41;;;;;;;18.20;9.35;;;;;;;;;;4952452;28;20498;-54
2023/07/25 02:35:07;;;;;;;21.35;9.80;;;;;;;;;;4951765;28;20031;-52
2023/07/25 02:37:33;;;;;;;21.23;10.02;;;;;;;;;;4952481;28;20055;-51
2023/07/25 02:39:59;;;;;;;24.40;10.60;;;;;;;;;;4935127;28;20059;-49
2023/07/25 02:42:25;;;;;;;19.38;10.18;;;;;;;;;;4935257;28;20450;-51
2023/07/25 02:44:51;;;;;;;18.42;9.98;;;;;;;;;;4951658;28;20035;-53
2023/07/25 02:47:17;;;;;;;20.33;10.38;;;;;;;;;;4972079;28;20025;-52
2023/07/25 02:49:43;;;;;;;22.55;10.32;;;;;;;;;;5035107;28;20415;-52
2023/07/25 02:52:09;;;;;;;18.33;10.48;;;;;;;;;;5052942;28;20070;-55
2023/07/25 02:54:35;;;;;;;20.15;9.98;;;;;;;;;;5052228;28;20135;-54
2023/07/25 02:57:01;;;;;;;20.92;10.43;;;;;;;;;;5052791;28;20032;-54
2023/07/25 02:59:29;;;;;;;26.30;14.63;;;;;;;;;;5052880;28;20029;-54
2023/07/25 03:01:55;;;;;;;18.27;9.90;;;;;;;;;;5052755;28;20455;-54
2023/07/25 03:04:21;;;;;;;18.38;10.25;;;;;;;;;;5052222;28;20100;-54
2023/07/25 03:06:47;;;;;;;19.13;10.32;;;;;;;;;;5052891;28;20025;-51
2023/07/25 03:09:13;;;;;;;19.23;9.80;;;;;;;;;;5052729;28;20408;-49
2023/07/25 03:11:39;;;;;;;21.27;10.45;;;;;;;;;;5052589;28;20017;-56
2023/07/25 03:14:05;;;;;;;21.65;10.52;;;;;;;;;;5051826;28;20021;-53
2023/07/25 03:16:31;;;;;;;18.50;10.02;;;;;;;;;;5052207;28;20029;-54
2023/07/25 03:18:57;;;;;;;23.67;11.25;;;;;;;;;;5034465;28;20500;-51
2023/07/25 03:21:23;;;;;;;23.73;10.32;;;;;;;;;;5034476;28;20115;-53
2023/07/25 03:23:49;;;;;;;21.35;10.57;;;;;;;;;;5052206;28;20029;-50
2023/07/25 03:26:15;;;;;;;22.00;10.38;;;;;;;;;;5051813;28;20021;-55
2023/07/25 03:28:41;;;;;;;20.58;11.10;;;;;;;;;;5052286;28;20047;-56
2023/07/25 03:31:07;;;;;;;23.52;10.88;;;;;;;;;;5052142;28;20116;-54
2023/07/25 03:33:33;;;;;;;24.17;11.38;;;;;;;;;;5051633;28;20082;-49
2023/07/25 03:35:59;;;;;;;21.00;10.30;;;;;;;;;;5051309;28;20111;-55
2023/07/25 03:38:25;;;;;;;19.73;10.40;;;;;;;;;;5034150;28;20036;-54
2023/07/25 03:40:51;;;;;;;22.48;11.05;;;;;;;;;;5051948;28;20025;-49
2023/07/25 03:43:17;;;;;;;22.55;11.13;;;;;;;;;;5052053;28;20381;-53
2023/07/25 03:45:43;;;;;;;20.92;10.68;;;;;;;;;;5051273;28;20021;-53
2023/07/25 03:48:09;;;;;;;22.60;11.10;;;;;;;;;;5051606;28;20041;-55
2023/07/25 03:50:35;;;;;;;29.15;11.55;;;;;;;;;;5051588;28;20033;-50
2023/07/25 03:53:02;;;;;;;21.25;11.18;;;;;;;;;;5051775;28;20484;-54
2023/07/25 03:55:28;;;;;;;22.40;10.73;;;;;;;;;;5051011;28;20124;-53
2023/07/25 03:57:54;;;;;;;19.83;10.15;;;;;;;;;;5051815;28;20021;-56
2023/07/25 04:00:20;;;;;;;22.10;10.68;;;;;;;;;;5051707;28;20040;-54
2023/07/25 04:02:46;;;;;;;22.80;10.77;;;;;;;;;;5051944;28;20064;-51
2023/07/25 04:05:12;;;;;;;22.02;11.98;;;;;;;;;;5033021;28;20056;-56
2023/07/25 04:07:38;;;;;;;20.35;11.30;;;;;;;;;;5050871;28;20547;-54
2023/07/25 04:10:04;;;;;;;24.60;11.52;;;;;;;;;;5051405;28;20047;-54
2023/07/25 04:12:30;;;;;;;19.85;10.52;;;;;;;;;;5051500;28;20025;-54
2023/07/25 04:14:56;;;;;;;20.85;11.43;;;;;;;;;;5050753;28;20374;-58
2023/07/25 04:17:22;;;;;;;21.38;10.73;;;;;;;;;;5051529;28;20025;-57
2023/07/25 04:19:48;;;;;;;21.02;12.13;;;;;;;;;;5051351;28;20029;-51
2023/07/25 04:22:14;;;;;;;22.45;12.43;;;;;;;;;;5051326;28;20032;-52
2023/07/25 04:24:40;;;;;;;21.00;11.48;;;;;;;;;;5032807;28;20025;-54
2023/07/25 04:27:06;;;;;;;20.40;11.77;;;;;;;;;;5051477;28;20532;-56
2023/07/25 04:29:32;;;;;;;24.38;12.18;;;;;;;;;;5051219;28;20021;-53
2023/07/25 04:31:58;;;;;;;20.35;11.18;;;;;;;;;;5051261;28;20554;-52
2023/07/25 04:34:24;;;;;;;21.40;11.25;;;;;;;;;;5050459;28;20110;-56
2023/07/25 04:36:50;;;;;;;25.25;11.85;;;;;;;;;;5051297;28;20031;-49
2023/07/25 04:39:16;;;;;;;19.85;10.93;;;;;;;;;;5051049;28;20076;-54
2023/07/25 04:41:41;;;;;;;20.60;11.98;;;;;;;;;;5050865;28;20496;-51
2023/07/25 04:44:08;;;;;;;22.90;11.70;;;;;;;;;;5050546;28;20063;-50
2023/07/25 04:46:33;;;;;;;24.75;12.80;;;;;;;;;;5033175;28;20135;-53
2023/07/25 04:48:59;;;;;;;25.35;12.43;;;;;;;;;;5051095;28;20025;-53
2023/07/25 04:51:25;;;;;;;19.25;11.80;;;;;;;;;;5033324;28;20017;-56
2023/07/25 04:53:51;;;;;;;21.85;10.95;;;;;;;;;;5050874;28;20366;-55
2023/07/25 04:56:17;;;;;;;21.85;11.95;;;;;;;;;;5050894;28;20028;-55
2023/07/25 04:58:43;;;;;;;22.85;11.48;;;;;;;;;;5051152;28;20468;-52
2023/07/25 05:01:10;;;;;;;19.45;10.52;;;;;;;;;;5050689;28;20017;-49
2023/07/25 05:03:36;;;;;;;21.25;10.68;;;;;;;;;;5051028;28;20036;-52
2023/07/25 05:06:02;;;;;;;21.42;12.15;;;;;;;;;;5050293;28;20100;-56
2023/07/25 05:08:28;;;;;;;23.98;11.93;;;;;;;;;;5050895;28;20061;-54
2023/07/25 05:10:54;;;;;;;19.98;10.77;;;;;;;;;;5050626;28;20233;-51
2023/07/25 05:13:20;;;;;;;26.30;11.55;;;;;;;;;;5033104;28;20070;-54
2023/07/25 05:15:48;;;;;;;24.10;12.00;;;;;;;;;;5049813;28;20017;-50
2023/07/25 05:18:14;;;;;;;23.55;11.85;;;;;;;;;;5051195;28;20104;-55
2023/07/25 05:20:40;;;;;;;21.90;12.23;;;;;;;;;;5054207;28;20033;-53
2023/07/25 05:23:06;;;;;;;21.80;12.18;;;;;;;;;;5054443;28;20033;-56
2023/07/25 05:25:32;;;;;;;21.27;12.32;;;;;;;;;;5053978;28;20028;-55
2023/07/25 05:27:58;;;;;;;22.50;11.30;;;;;;;;;;5054530;28;20029;-51
2023/07/25 05:30:24;;;;;;;17.98;11.07;;;;;;;;;;5036576;28;20438;-50
2023/07/25 05:32:50;;;;;;;21.55;11.65;;;;;;;;;;5054643;28;20025;-55
2023/07/25 05:35:16;;;;;;;21.92;11.02;;;;;;;;;;5053715;28;20025;-55
2023/07/25 05:37:42;;;;;;;19.38;10.98;;;;;;;;;;5036269;28;20028;-53
2023/07/25 05:40:08;;;;;;;18.80;9.85;;;;;;;;;;5053931;28;20025;-50
2023/07/25 05:42:34;;;;;;;23.23;10.57;;;;;;;;;;5054220;28;20032;-53
2023/07/25 05:45:01;;;;;;;19.38;10.13;;;;;;;;;;5053283;28;20025;-52
2023/07/25 05:47:30;;;;;;;22.00;10.13;;;;;;;;;;5054116;28;20031;-52
2023/07/25 05:49:57;;;;;;;21.75;10.43;;;;;;;;;;5036161;28;20052;-55
2023/07/25 05:52:23;;;;;;;22.88;10.48;;;;;;;;;;5054053;28;20021;-51
2023/07/25 05:54:49;;;;;;;17.20;9.18;;;;;;;;;;5052993;28;20044;-54
2023/07/25 05:57:16;;;;;;;16.58;8.80;;;;;;;;;;5054117;28;20048;-51
2023/07/25 05:59:43;;;;;;;19.92;9.10;;;;;;;;;;5053784;28;20048;-52
2023/07/25 06:02:10;;;;;;;18.97;8.70;;;;;;;;;;5053971;28;20029;-52
2023/07/25 06:04:36;;;;;;;17.50;8.95;;;;;;;;;;5053163;28;20024;-49
2023/07/25 06:07:02;;;;;;;17.92;8.77;;;;;;;;;;5053772;28;20025;-52
2023/07/25 06:09:28;;;;;;;18.30;8.80;;;;;;;;;;5053741;28;20056;-50
2023/07/25 06:11:55;;;;;;;19.95;8.55;;;;;;;;;;5053552;28;20132;-52
2023/07/25 06:14:21;;;;;;;18.75;9.00;;;;;;;;;;5052970;28;20048;-51
2023/07/25 06:16:47;;;;;;;24.08;9.20;;;;;;;;;;5053538;28;20025;-57
2023/07/25 06:19:13;;;;;;;17.70;8.80;;;;;;;;;;5053695;28;20032;-55
2023/07/25 06:21:39;;;;;;;17.25;9.07;;;;;;;;;;5054528;28;20037;-54
2023/07/25 06:24:05;;;;;;;16.90;8.75;;;;;;;;;;5053236;28;20709;-54
2023/07/25 06:26:31;;;;;;;18.48;8.88;;;;;;;;;;5004073;28;20039;-56
2023/07/25 06:28:57;;;;;;;20.02;9.98;;;;;;;;;;4953273;28;20160;-52
2023/07/25 06:31:23;;;;;;;20.05;9.70;;;;;;;;;;4967236;28;20096;-49
2023/07/25 06:33:49;;;;;;;21.85;9.23;;;;;;;;;;4970118;28;20023;-52
2023/07/25 06:36:15;;;;;;;17.05;8.70;;;;;;;;;;4950033;28;20479;-53
2023/07/25 06:38:41;;;;;;;17.70;9.20;;;;;;;;;;4951940;29;20027;-47
2023/07/25 06:41:07;;;;;;;21.85;10.23;;;;;;;;;;4951959;29;20035;-48
2023/07/25 06:43:33;;;;;;;18.77;8.55;;;;;;;;;;4949735;28;20031;-56
2023/07/25 06:45:59;;;;;;;17.70;9.02;;;;;;;;;;4951248;28;20023;-53
2023/07/25 06:48:25;;;;;;;18.45;9.23;;;;;;;;;;4951957;28;20027;-49
2023/07/25 06:50:51;;;;;;;20.33;8.90;;;;;;;;;;4942111;28;20110;-54
2023/07/25 06:53:17;;;;;;;17.75;8.38;;;;;;;;;;4951881;28;20479;-48
2023/07/25 06:55:44;;;;;;;17.42;8.32;;;;;;;;;;4950480;28;20047;-49
2023/07/25 06:58:10;;;;;;;18.15;8.40;;;;;;;;;;4951679;28;20023;-52
2023/07/25 07:00:39;;;;;;;17.00;8.30;;;;;;;;;;4953350;28;20053;-51
2023/07/25 07:03:05;;;;;;;16.88;8.60;;;;;;;;;;4970780;28;20027;-53
2023/07/25 07:05:32;;;;;;;21.33;10.30;;;;;;;;;;4970154;28;20050;-48
2023/07/25 07:07:58;;;;;;;24.42;9.30;;;;;;;;;;4970833;28;20031;-50
2023/07/25 07:10:24;;;;;;;18.98;9.30;;;;;;;;;;4957655;28;20031;-53
2023/07/25 07:12:52;;;;;;;17.92;8.93;;;;;;;;;;4951520;28;20031;-52
2023/07/25 07:15:18;;;;;;;22.20;9.27;;;;;;;;;;4950611;28;20019;-48
2023/07/25 07:17:44;;;;;;;16.45;8.23;;;;;;;;;;4951375;28;20027;-54
2023/07/25 07:20:10;;;;;;;18.52;9.13;;;;;;;;;;4951248;28;20491;-51
2023/07/25 07:22:36;;;;;;;18.25;9.00;;;;;;;;;;4951032;28;20032;-52
2023/07/25 07:25:02;;;;;;;17.48;8.70;;;;;;;;;;4950535;28;20031;-54
2023/07/25 07:27:28;;;;;;;21.55;10.18;;;;;;;;;;4947582;28;20027;-50
2023/07/25 07:29:54;;;;;;;17.00;9.15;;;;;;;;;;4951024;28;20036;-50
2023/07/25 07:32:20;;;;;;;27.80;10.10;;;;;;;;;;4951293;28;20027;-51
2023/07/25 07:34:46;;;;;;;22.42;10.18;;;;;;;;;;4950456;28;20429;-52
2023/07/25 07:37:12;;;;;;;17.80;9.85;;;;;;;;;;4949725;28;20055;-54
2023/07/25 07:39:39;;;;;;;17.88;9.45;;;;;;;;;;4951073;28;20027;-54
2023/07/25 07:42:05;;;;;;;19.52;9.15;;;;;;;;;;4950842;28;20058;-59
2023/07/25 07:44:31;;;;;;;18.88;10.05;;;;;;;;;;4950262;29;20047;-60
2023/07/25 07:46:57;;;;;;;16.45;9.15;;;;;;;;;;4951165;28;20030;-56
2023/07/25 07:49:23;;;;;;;19.73;9.10;;;;;;;;;;4950485;28;20042;-59
2023/07/25 07:51:49;;;;;;;18.70;9.35;;;;;;;;;;4950912;28;20440;-58
2023/07/25 07:54:15;;;;;;;17.80;9.73;;;;;;;;;;4949712;28;20034;-58
2023/07/25 07:56:41;;;;;;;19.98;9.70;;;;;;;;;;4950790;28;20023;-57
2023/07/25 07:59:07;;;;;;;21.92;10.60;;;;;;;;;;4950480;28;20102;-59
2023/07/25 08:01:33;;;;;;;17.02;10.20;;;;;;;;;;4952464;28;20031;-59
2023/07/25 08:04:00;;;;;;;17.73;9.50;;;;;;;;;;4969386;28;20399;-59
2023/07/25 08:06:27;;;;;;;19.98;10.05;;;;;;;;;;4969911;28;20023;-58
2023/07/25 08:08:53;;;;;;;15.00;8.77;;;;;;;;;;4969757;28;20054;-59
2023/07/25 08:11:20;;;;;;;17.05;10.10;;;;;;;;;;4969757;28;20047;-59
2023/07/25 08:13:46;;;;;;;16.27;10.10;;;;;;;;;;4969291;28;20034;-56
2023/07/25 08:16:12;;;;;;;16.75;9.93;;;;;;;;;;4968665;28;20022;-57
2023/07/25 08:18:38;;;;;;;17.63;9.85;;;;;;;;;;4952042;28;20058;-59
2023/07/25 08:21:07;;;;;;;18.05;10.50;;;;;;;;;;4968773;28;20084;-59
2023/07/25 08:23:33;;;;;;;20.85;10.93;;;;;;;;;;4965024;28;20027;-59
2023/07/25 08:25:59;;;;;;;18.73;10.35;;;;;;;;;;4949302;28;20019;-59
2023/07/25 08:28:25;;;;;;;17.80;10.57;;;;;;;;;;4949771;28;20030;-59
2023/07/25 08:30:58;;;;;;;18.35;10.73;;;;;;;;;;4932548;28;20027;-58
2023/07/25 08:33:25;;;;;;;19.02;10.65;;;;;;;;;;4949997;28;20667;-61
2023/07/25 08:35:52;;;;;;;17.95;10.30;;;;;;;;;;4949724;28;20023;-59
2023/07/25 08:38:18;;;;;;;17.33;10.38;;;;;;;;;;4950631;28;20102;-57
2023/07/25 08:40:46;;;;;;;17.75;10.55;;;;;;;;;;4950396;28;20567;-59
2023/07/25 08:43:13;;;;;;;16.30;9.90;;;;;;;;;;4950351;28;20348;-59
2023/07/25 08:45:40;;;;;;;18.15;10.25;;;;;;;;;;4949586;28;20024;-57
2023/07/25 08:48:12;;;;;;;20.95;10.05;;;;;;;;;;4950140;28;20365;-59
2023/07/25 08:50:38;;;;;;;17.85;10.77;;;;;;;;;;4950016;28;20114;-58
2023/07/25 08:53:11;;;;;;;18.63;10.63;;;;;;;;;;4950728;28;20075;-60
2023/07/25 08:55:38;;;;;;;17.45;10.35;;;;;;;;;;4953140;29;20034;-59
2023/07/25 08:58:04;;;;;;;16.83;10.50;;;;;;;;;;4953567;28;20492;-59
2023/07/25 09:00:30;;;;;;;20.45;11.48;;;;;;;;;;4953561;28;20407;-55
2023/07/25 09:02:56;;;;;;;20.27;10.60;;;;;;;;;;4953456;28;20031;-60
2023/07/25 09:05:23;;;;;;;20.60;10.27;;;;;;;;;;4952730;28;20038;-58
2023/07/25 09:07:49;;;;;;;16.33;9.70;;;;;;;;;;4951195;28;20027;-59
2023/07/25 09:10:15;;;;;;;19.33;10.40;;;;;;;;;;4952917;28;20024;-58
2023/07/25 09:12:41;;;;;;;16.90;10.10;;;;;;;;;;4951651;28;20031;-57
2023/07/25 09:15:07;;;;;;;19.25;9.80;;;;;;;;;;4952526;28;20055;-59
2023/07/25 09:17:33;;;;;;;18.40;10.18;;;;;;;;;;4952060;28;20554;-59
2023/07/25 09:19:59;;;;;;;17.80;10.07;;;;;;;;;;4952823;28;20061;-58
2023/07/25 09:22:32;;;;;;;19.65;10.02;;;;;;;;;;4953013;28;20433;-59
2023/07/25 09:24:59;;;;;;;18.67;10.40;;;;;;;;;;4952423;28;20050;-59
2023/07/25 09:27:26;;;;;;;18.00;9.85;;;;;;;;;;4952995;28;20023;-59
2023/07/25 09:29:53;;;;;;;18.40;10.68;;;;;;;;;;4935536;28;20040;-58
2023/07/25 09:32:22;;;;;;;16.73;10.23;;;;;;;;;;4953123;28;20111;-61
2023/07/25 09:34:58;;;;;;;17.42;10.90;;;;;;;;;;4952729;28;20072;-59
2023/07/25 09:37:24;;;;;;;17.55;9.82;;;;;;;;;;4952963;28;20115;-56
2023/07/25 09:39:50;;;;;;;18.50;10.20;;;;;;;;;;4952753;28;20031;-54
2023/07/25 09:42:16;;;;;;;18.90;10.50;;;;;;;;;;4952573;28;20031;-66
2023/07/25 09:44:50;;;;;;;19.08;10.48;;;;;;;;;;4952031;28;20038;-57
2023/07/25 09:47:23;;;;;;;16.67;9.88;;;;;;;;;;4952895;28;20028;-56
2023/07/25 09:49:50;;;;;;;16.55;9.80;;;;;;;;;;4952486;29;20376;-52
2023/07/25 09:52:16;;;;;;;17.92;9.75;;;;;;;;;;4952987;28;20030;-57
2023/07/25 09:54:42;;;;;;;19.17;10.07;;;;;;;;;;4950975;28;20487;-54
2023/07/25 09:57:08;;;;;;;17.15;9.32;;;;;;;;;;4952494;28;20033;-55
2023/07/25 09:59:35;;;;;;;17.75;9.82;;;;;;;;;;4951322;29;20118;-56
2023/07/25 10:02:01;;;;;;;16.83;10.30;;;;;;;;;;4952545;29;20032;-52
2023/07/25 10:04:27;;;;;;;19.17;10.65;;;;;;;;;;4951126;28;20112;-57
2023/07/25 10:06:53;;;;;;;16.70;10.40;;;;;;;;;;4951830;28;20035;-53
2023/07/25 10:09:19;;;;;;;17.42;10.05;;;;;;;;;;4952371;28;20035;-54
2023/07/25 10:11:47;;;;;;;18.75;10.82;;;;;;;;;;4952313;28;20530;-58
2023/07/25 10:14:13;;;;;;;18.70;11.13;;;;;;;;;;4950554;29;20132;-55
2023/07/25 10:16:40;;;;;;;17.25;10.27;;;;;;;;;;4952465;28;20078;-55
2023/07/25 10:19:06;;;;;;;17.35;9.95;;;;;;;;;;4951181;28;20027;-52
2023/07/25 10:21:52;;;;;;;19.00;9.23;;;;;;;;;;4950725;28;20118;-54
2023/07/25 10:24:18;;;;;;;16.60;9.77;;;;;;;;;;4951217;28;20062;-50
2023/07/25 10:26:58;;;;;;;17.88;9.70;;;;;;;;;;4952340;28;20448;-53
2023/07/25 10:29:50;;;;;;;16.17;9.38;;;;;;;;;;4932749;29;20065;-51
2023/07/25 10:32:17;;;;;;;19.73;10.25;;;;;;;;;;4932893;28;20098;-53
2023/07/25 10:35:03;;;;;;;17.50;10.00;;;;;;;;;;4931598;29;20019;-53
2023/07/25 10:37:29;;;;;;;18.20;10.73;;;;;;;;;;4932722;28;20114;-51
2023/07/25 10:40:09;;;;;;;17.67;10.18;;;;;;;;;;4932645;29;20437;-52
2023/07/25 10:42:42;;;;;;;20.00;10.77;;;;;;;;;;4932881;29;20078;-52
2023/07/25 10:45:20;;;;;;;20.17;10.90;;;;;;;;;;4932337;29;20086;-57
2023/07/25 10:47:48;;;;;;;18.08;10.20;;;;;;;;;;4932797;29;20078;-57
2023/07/25 10:50:16;;;;;;;17.10;10.10;;;;;;;;;;4947032;28;20058;-55
2023/07/25 10:52:43;;;;;;;19.38;11.43;;;;;;;;;;4942368;28;20031;-55
2023/07/25 10:55:12;;;;;;;21.02;10.90;;;;;;;;;;4945405;28;20039;-57
2023/07/25 10:57:38;;;;;;;18.13;9.73;;;;;;;;;;4951587;29;20027;-56
2023/07/25 11:00:05;;;;;;;17.40;10.73;;;;;;;;;;4951464;28;20126;-57
2023/07/25 11:02:31;;;;;;;16.42;10.50;;;;;;;;;;4951517;28;20161;-58
2023/07/25 11:05:12;;;;;;;15.98;10.40;;;;;;;;;;4950992;28;20380;-55
2023/07/25 11:07:48;;;;;;;15.93;10.50;;;;;;;;;;4951358;28;20027;-53
2023/07/25 11:10:27;;;;;;;17.67;10.23;;;;;;;;;;4951448;28;20089;-58
2023/07/25 11:12:57;;;;;;;24.23;11.07;;;;;;;;;;4951813;28;20442;-58
2023/07/25 11:15:23;;;;;;;17.35;11.55;;;;;;;;;;4964871;28;20035;-58
2023/07/25 11:17:50;;;;;;;18.55;10.45;;;;;;;;;;4951387;28;20024;-56
2023/07/25 11:20:21;;;;;;;17.13;10.98;;;;;;;;;;4951288;28;20491;-59
2023/07/25 11:22:51;;;;;;;17.15;10.85;;;;;;;;;;4951506;28;20330;-53
2023/07/25 11:25:17;;;;;;;16.55;10.98;;;;;;;;;;4950660;28;20027;-56
2023/07/25 11:27:43;;;;;;;18.50;11.52;;;;;;;;;;4951329;28;20055;-57
2023/07/25 11:30:13;;;;;;;18.00;11.07;;;;;;;;;;4951044;28;20123;-56
2023/07/25 11:32:40;;;;;;;19.30;12.07;;;;;;;;;;4951033;28;20019;-64
2023/07/25 11:35:07;;;;;;;16.58;10.65;;;;;;;;;;4950694;28;20370;-58
2023/07/25 11:37:33;;;;;;;16.80;11.13;;;;;;;;;;4951093;28;20487;-52
2023/07/25 11:40:10;;;;;;;16.95;10.60;;;;;;;;;;4951023;28;20042;-48
2023/07/25 11:42:39;;;;;;;17.83;10.80;;;;;;;;;;4951372;28;20054;-54
2023/07/25 11:45:06;;;;;;;17.17;10.55;;;;;;;;;;4950031;29;20117;-53
2023/07/25 11:47:32;;;;;;;16.30;10.48;;;;;;;;;;4951039;28;20464;-55
2023/07/25 11:49:58;;;;;;;16.73;10.60;;;;;;;;;;4950631;28;20034;-53
2023/07/25 11:52:24;;;;;;;20.10;11.10;;;;;;;;;;4950965;28;20356;-52
2023/07/25 11:54:50;;;;;;;18.25;10.90;;;;;;;;;;4933698;28;20452;-49
2023/07/25 11:57:16;;;;;;;17.65;11.18;;;;;;;;;;4951101;28;20110;-54
2023/07/25 11:59:42;;;;;;;16.55;11.50;;;;;;;;;;4951197;28;20487;-51
2023/07/25 12:02:08;;;;;;;17.48;11.25;;;;;;;;;;4950946;28;20031;-52
2023/07/25 12:04:41;;;;;;;15.75;11.05;;;;;;;;;;4950489;28;20020;-55
2023/07/25 12:07:07;;;;;;;18.63;11.85;;;;;;;;;;4950859;29;20028;-54
2023/07/25 12:09:33;;;;;;;20.88;11.68;;;;;;;;;;4950846;28;20035;-57
2023/07/25 12:11:59;;;;;;;19.33;11.65;;;;;;;;;;4933440;29;20495;-55
2023/07/25 12:14:25;;;;;;;17.15;11.20;;;;;;;;;;4950198;28;20020;-51
2023/07/25 12:16:51;;;;;;;17.40;10.80;;;;;;;;;;4950897;28;20019;-53
2023/07/25 12:19:17;;;;;;;18.27;11.05;;;;;;;;;;4951140;28;20035;-53
2023/07/25 12:21:44;;;;;;;17.15;11.20;;;;;;;;;;4952038;28;20633;-53
2023/07/25 12:24:14;;;;;;;18.23;11.05;;;;;;;;;;4950359;28;20039;-55
2023/07/25 12:26:47;;;;;;;19.58;11.10;;;;;;;;;;4950352;28;20039;-56
2023/07/25 12:29:18;;;;;;;19.92;11.00;;;;;;;;;;4949558;28;20109;-51
2023/07/25 12:31:44;;;;;;;16.65;10.48;;;;;;;;;;4958987;28;20028;-55
2023/07/25 12:34:10;;;;;;;17.45;11.38;;;;;;;;;;4968713;28;20030;-52
2023/07/25 12:36:37;;;;;;;18.60;11.68;;;;;;;;;;4952345;28;20114;-54
2023/07/25 12:39:03;;;;;;;17.17;11.30;;;;;;;;;;4969823;28;20023;-56
2023/07/25 12:41:29;;;;;;;16.02;11.13;;;;;;;;;;4969199;28;20076;-55
2023/07/25 12:43:55;;;;;;;17.45;11.00;;;;;;;;;;4944088;28;20141;-54
2023/07/25 12:46:21;;;;;;;17.77;11.50;;;;;;;;;;4945936;28;20020;-54
2023/07/25 12:48:47;;;;;;;15.63;11.20;;;;;;;;;;4949254;28;20085;-52
2023/07/25 12:51:13;;;;;;;17.83;11.70;;;;;;;;;;4949303;28;20452;-55
2023/07/25 12:53:39;;;;;;;17.63;10.98;;;;;;;;;;4949608;28;20031;-52
2023/07/25 12:56:05;;;;;;;16.73;11.25;;;;;;;;;;4948746;28;20463;-52
2023/07/25 12:58:31;;;;;;;16.20;10.75;;;;;;;;;;4949976;28;20030;-54
2023/07/25 13:00:57;;;;;;;18.48;10.80;;;;;;;;;;4949671;28;20081;-53
2023/07/25 13:03:23;;;;;;;16.58;11.05;;;;;;;;;;4946775;28;20043;-51
2023/07/25 13:05:49;;;;;;;19.65;10.93;;;;;;;;;;4948597;28;20023;-56
2023/07/25 13:08:16;;;;;;;19.92;10.50;;;;;;;;;;4949710;28;20085;-51
2023/07/25 13:10:42;;;;;;;17.88;11.05;;;;;;;;;;4949720;28;20037;-54
2023/07/25 13:13:08;;;;;;;18.27;10.98;;;;;;;;;;4950608;28;20027;-54
2023/07/25 13:15:34;;;;;;;16.45;10.50;;;;;;;;;;4949269;28;20032;-55
2023/07/25 13:18:00;;;;;;;17.17;10.60;;;;;;;;;;4950116;28;20035;-55
2023/07/25 13:20:26;;;;;;;16.17;10.10;;;;;;;;;;4949447;28;20062;-57
2023/07/25 13:22:53;;;;;;;16.17;11.10;;;;;;;;;;4949827;28;20031;-54
2023/07/25 13:25:19;;;;;;;15.82;10.95;;;;;;;;;;4949778;28;20488;-55
2023/07/25 13:27:45;;;;;;;16.70;10.68;;;;;;;;;;4950184;29;20364;-52
2023/07/25 13:30:11;;;;;;;17.73;11.55;;;;;;;;;;4949504;28;20033;-54
2023/07/25 13:32:38;;;;;;;16.90;11.27;;;;;;;;;;4949957;28;20165;-52
2023/07/25 13:35:04;;;;;;;15.95;11.40;;;;;;;;;;4949376;28;20411;-49
2023/07/25 13:37:30;;;;;;;16.85;11.50;;;;;;;;;;4949764;29;20026;-52
2023/07/25 13:39:56;;;;;;;17.33;11.35;;;;;;;;;;4951395;28;20039;-54
2023/07/25 13:42:23;;;;;;;17.13;11.80;;;;;;;;;;4952485;28;20027;-50
2023/07/25 13:44:49;;;;;;;15.15;10.98;;;;;;;;;;4951730;28;20051;-52
2023/07/25 13:47:15;;;;;;;15.95;11.63;;;;;;;;;;4952630;28;20058;-55
2023/07/25 13:49:41;;;;;;;16.13;11.65;;;;;;;;;;4935521;28;20076;-52
2023/07/25 13:52:07;;;;;;;15.40;11.65;;;;;;;;;;4952405;28;20039;-50
2023/07/25 13:54:33;;;;;;;16.40;11.93;;;;;;;;;;4951801;28;20114;-54
2023/07/25 13:56:59;;;;;;;15.70;12.27;;;;;;;;;;4952790;29;20039;-54
2023/07/25 13:59:25;;;;;;;16.05;12.35;;;;;;;;;;4952539;28;20089;-51
2023/07/25 14:01:52;;;;;;;19.27;12.30;;;;;;;;;;4952421;28;20028;-55
2023/07/25 14:04:18;;;;;;;17.00;12.30;;;;;;;;;;4951470;28;20055;-54
2023/07/25 14:06:50;;;;;;;16.08;11.82;;;;;;;;;;4952478;29;20093;-56
2023/07/25 14:09:16;;;;;;;15.25;11.57;;;;;;;;;;4935376;28;20078;-57
2023/07/25 14:11:42;;;;;;;16.63;11.93;;;;;;;;;;4952473;28;20027;-58
2023/07/25 14:14:08;;;;;;;16.23;12.10;;;;;;;;;;4951658;28;20024;-54
2023/07/25 14:16:34;;;;;;;17.42;12.50;;;;;;;;;;4952266;28;20122;-55
2023/07/25 14:19:00;;;;;;;16.08;11.60;;;;;;;;;;4952396;28;20030;-57